CST,Max TemperatureF,Mean TemperatureF,Min TemperatureF,Max Dew PointF,MeanDew PointF,Min DewpointF,Max Humidity, Mean Humidity, Min Humidity, Max Sea Level PressureIn, Mean Sea Level PressureIn, Min Sea Level PressureIn, Max VisibilityMiles, Mean VisibilityMiles, Min VisibilityMiles, Max Wind SpeedMPH, Mean Wind SpeedMPH, Max Gust SpeedMPH,PrecipitationIn, CloudCover, Events, WindDirDegrees
2012-11-1,75,57,39,55,47,39,100,75,38,30.10,30.02,29.96,10,8,1,6,0,,0.00,0,,189
2012-11-2,86,67,48,61,54,46,100,74,35,30.01,29.97,29.94,10,5,0,10,2,,0.00,0,,228
2012-11-3,84,68,53,64,58,52,100,76,42,30.10,30.03,29.98,10,6,0,10,3,16,0.22,1,Fog-Rain,259
2012-11-4,64,55,44,57,47,41,94,76,49,30.23,30.14,30.08,10,9,3,12,5,,0.11,3,Rain,38
2012-11-5,62,54,46,50,46,43,100,82,59,30.11,30.03,29.96,10,8,0,6,0,,0.00,4,Fog-Rain,357
2012-11-6,64,52,41,48,44,39,94,77,40,30.14,30.07,30.02,10,7,0,8,3,,0.00,3,Fog,311
2012-11-7,68,52,35,41,36,28,100,68,23,30.19,30.11,30.07,10,9,1,12,2,18,0.00,0,,330
2012-11-8,66,50,33,43,37,32,93,66,34,30.27,30.19,30.13,10,10,9,12,3,,0.00,0,,142
2012-11-9,75,60,44,48,44,39,87,62,34,30.19,30.12,30.06,10,10,10,14,6,20,0.00,0,,155
2012-11-10,77,62,48,55,52,45,100,73,47,30.18,30.08,30.01,10,9,3,15,6,22,0.00,0,,148
2012-11-11,73,63,53,63,56,50,94,79,60,30.16,30.01,29.93,10,8,0,17,9,28,0.73,6,Fog-Rain,156
2012-11-12,55,44,32,50,33,23,100,67,29,30.50,30.41,30.17,10,9,5,13,6,20,0.01,2,Rain,347
2012-11-13,57,42,28,36,29,23,100,70,27,30.56,30.47,30.39,10,8,2,9,1,,0.00,0,Rain,40
2012-11-14,57,44,32,36,31,25,100,67,29,30.45,30.39,30.34,10,9,5,8,2,,0.00,0,,14
2012-11-15,59,42,26,34,28,19,100,69,22,30.39,30.34,30.29,10,9,5,9,2,,0.00,0,,24
2012-11-16,62,44,26,34,28,23,100,67,23,30.44,30.39,30.34,10,10,3,9,2,,0.00,0,,27
2012-11-17,66,47,28,36,30,25,93,68,21,30.45,30.39,30.33,10,9,3,7,1,,0.00,0,,23
2012-11-18,68,48,28,39,33,27,100,69,26,30.39,30.34,30.28,10,8,3,7,1,,0.00,0,,154
2012-11-19,71,53,35,48,41,34,93,68,31,30.32,30.25,30.18,10,9,2,4,0,,0.00,3,,190
2012-11-20,77,62,46,50,47,37,94,66,25,30.23,30.17,30.05,10,8,0,6,1,,0.00,3,Fog,259
2012-11-21,73,56,39,48,44,37,100,76,35,30.31,30.23,30.18,10,5,0,7,0,,0.00,0,Fog,12
2012-11-22,73,54,35,48,43,34,100,70,33,30.23,30.16,30.09,10,8,0,12,2,,0.00,1,Fog,181
2012-11-23,66,54,39,54,38,25,94,59,23,30.39,30.28,30.15,10,8,2,15,3,25,0.15,3,Rain,340
2012-11-24,55,40,26,32,25,18,93,63,23,30.43,30.32,30.19,10,10,4,8,1,,0.00,0,,3
2012-11-25,66,46,26,37,30,25,93,62,26,30.18,30.07,29.97,10,10,10,10,3,18,0.00,0,,156
2012-11-26,66,54,42,57,48,36,94,78,68,30.21,30.03,29.96,10,9,6,21,3,34,0.00,6,,107
2012-11-27,57,44,32,39,32,28,93,64,33,30.41,30.33,30.21,10,10,8,18,10,28,0.00,2,,18
2012-11-28,60,43,26,36,31,25,100,73,34,30.52,30.42,30.36,10,9,2,7,1,,0.00,0,,166
2012-11-29,66,46,26,36,31,25,100,67,26,30.38,30.29,30.22,10,10,4,9,2,20,0.00,0,,146
2012-11-30,71,52,32,54,43,30,100,76,46,30.26,30.20,30.14,10,10,8,9,2,,0.00,3,,139